sensor_id;sensor_type;location;lat;lon;timestamp;P1;durP1;ratioP1;P2;durP2;ratioP2
3543;SDS011;1786;52.870;9.578;2023-05-07T00:02:13;16.00;;;12.93;;
3543;SDS011;1786;52.870;9.578;2023-05-07T00:04:40;17.60;;;13.70;;
3543;SDS011;1786;52.870;9.578;2023-05-07T00:07:07;15.97;;;12.43;;
3543;SDS011;1786;52.870;9.578;2023-05-07T00:09:33;15.90;;;12.70;;
3543;SDS011;1786;52.870;9.578;2023-05-07T00:12:01;12.97;;;11.30;;
3543;SDS011;1786;52.870;9.578;2023-05-07T00:14:27;15.43;;;10.97;;
3543;SDS011;1786;52.870;9.578;2023-05-07T00:16:55;13.77;;;11.03;;
3543;SDS011;1786;52.870;9.578;2023-05-07T00:19:22;14.67;;;10.90;;
3543;SDS011;1786;52.870;9.578;2023-05-07T00:21:48;16.80;;;11.77;;
3543;SDS011;1786;52.870;9.578;2023-05-07T00:24:16;14.40;;;11.53;;
3543;SDS011;1786;52.870;9.578;2023-05-07T00:26:43;14.83;;;11.67;;
3543;SDS011;1786;52.870;9.578;2023-05-07T00:29:10;15.60;;;11.23;;
3543;SDS011;1786;52.870;9.578;2023-05-07T00:31:37;16.33;;;11.93;;
3543;SDS011;1786;52.870;9.578;2023-05-07T00:34:03;14.53;;;10.90;;
3543;SDS011;1786;52.870;9.578;2023-05-07T00:36:30;23.10;;;12.33;;
3543;SDS011;1786;52.870;9.578;2023-05-07T00:38:58;15.50;;;12.20;;
3543;SDS011;1786;52.870;9.578;2023-05-07T00:41:26;17.27;;;12.63;;
3543;SDS011;1786;52.870;9.578;2023-05-07T00:43:53;18.40;;;13.93;;
3543;SDS011;1786;52.870;9.578;2023-05-07T00:46:20;14.57;;;11.80;;
3543;SDS011;1786;52.870;9.578;2023-05-07T00:48:47;17.20;;;12.87;;
3543;SDS011;1786;52.870;9.578;2023-05-07T00:51:16;14.70;;;11.63;;
3543;SDS011;1786;52.870;9.578;2023-05-07T00:53:43;15.67;;;13.23;;
3543;SDS011;1786;52.870;9.578;2023-05-07T00:56:11;18.50;;;12.90;;
3543;SDS011;1786;52.870;9.578;2023-05-07T00:58:38;22.90;;;12.57;;
3543;SDS011;1786;52.870;9.578;2023-05-07T01:01:05;16.80;;;12.03;;
3543;SDS011;1786;52.870;9.578;2023-05-07T01:03:32;16.40;;;12.20;;
3543;SDS011;1786;52.870;9.578;2023-05-07T01:06:00;18.30;;;13.23;;
3543;SDS011;1786;52.870;9.578;2023-05-07T01:08:28;15.37;;;11.73;;
3543;SDS011;1786;52.870;9.578;2023-05-07T01:10:56;13.30;;;11.67;;
3543;SDS011;1786;52.870;9.578;2023-05-07T01:13:23;16.40;;;12.20;;
3543;SDS011;1786;52.870;9.578;2023-05-07T01:15:51;20.67;;;12.30;;
3543;SDS011;1786;52.870;9.578;2023-05-07T01:18:18;13.63;;;11.57;;
3543;SDS011;1786;52.870;9.578;2023-05-07T01:20:45;14.43;;;10.60;;
3543;SDS011;1786;52.870;9.578;2023-05-07T01:23:12;16.40;;;11.80;;
3543;SDS011;1786;52.870;9.578;2023-05-07T01:25:40;18.47;;;11.40;;
3543;SDS011;1786;52.870;9.578;2023-05-07T01:28:08;18.63;;;11.17;;
3543;SDS011;1786;52.870;9.578;2023-05-07T01:30:37;15.00;;;11.10;;
3543;SDS011;1786;52.870;9.578;2023-05-07T01:33:13;15.70;;;10.83;;
3543;SDS011;1786;52.870;9.578;2023-05-07T01:35:43;17.27;;;11.13;;
3543;SDS011;1786;52.870;9.578;2023-05-07T01:38:13;13.57;;;9.73;;
3543;SDS011;1786;52.870;9.578;2023-05-07T01:40:41;13.33;;;11.10;;
3543;SDS011;1786;52.870;9.578;2023-05-07T01:43:08;13.47;;;10.30;;
3543;SDS011;1786;52.870;9.578;2023-05-07T01:45:36;13.40;;;10.67;;
3543;SDS011;1786;52.870;9.578;2023-05-07T01:48:05;15.00;;;10.97;;
3543;SDS011;1786;52.870;9.578;2023-05-07T01:50:33;17.70;;;11.80;;
3543;SDS011;1786;52.870;9.578;2023-05-07T01:53:01;15.37;;;11.50;;
3543;SDS011;1786;52.870;9.578;2023-05-07T01:55:28;14.10;;;11.53;;
3543;SDS011;1786;52.870;9.578;2023-05-07T01:57:55;14.17;;;11.10;;
3543;SDS011;1786;52.870;9.578;2023-05-07T02:00:22;13.20;;;11.33;;
3543;SDS011;1786;52.870;9.578;2023-05-07T02:02:49;13.90;;;11.43;;
3543;SDS011;1786;52.870;9.578;2023-05-07T02:05:25;13.23;;;10.70;;
3543;SDS011;1786;52.870;9.578;2023-05-07T02:08:00;14.40;;;11.00;;
3543;SDS011;1786;52.870;9.578;2023-05-07T02:10:29;12.00;;;10.73;;
3543;SDS011;1786;52.870;9.578;2023-05-07T02:12:55;11.63;;;10.00;;
3543;SDS011;1786;52.870;9.578;2023-05-07T02:15:22;12.53;;;9.73;;
3543;SDS011;1786;52.870;9.578;2023-05-07T02:20:45;13.83;;;10.37;;
3543;SDS011;1786;52.870;9.578;2023-05-07T02:23:12;13.77;;;10.03;;
3543;SDS011;1786;52.870;9.578;2023-05-07T02:25:38;11.67;;;9.43;;
3543;SDS011;1786;52.870;9.578;2023-05-07T02:28:05;12.30;;;10.17;;
3543;SDS011;1786;52.870;9.578;2023-05-07T02:30:41;10.97;;;9.40;;
3543;SDS011;1786;52.870;9.578;2023-05-07T02:33:08;11.13;;;9.53;;
3543;SDS011;1786;52.870;9.578;2023-05-07T02:35:35;11.47;;;8.70;;
3543;SDS011;1786;52.870;9.578;2023-05-07T02:38:01;11.70;;;9.07;;
3543;SDS011;1786;52.870;9.578;2023-05-07T02:40:29;14.57;;;10.00;;
3543;SDS011;1786;52.870;9.578;2023-05-07T02:42:56;11.17;;;9.97;;
3543;SDS011;1786;52.870;9.578;2023-05-07T02:45:23;10.57;;;9.03;;
3543;SDS011;1786;52.870;9.578;2023-05-07T02:47:52;11.70;;;9.20;;
3543;SDS011;1786;52.870;9.578;2023-05-07T02:50:19;10.07;;;9.00;;
3543;SDS011;1786;52.870;9.578;2023-05-07T02:52:45;17.63;;;10.37;;
3543;SDS011;1786;52.870;9.578;2023-05-07T02:55:13;10.83;;;9.53;;
3543;SDS011;1786;52.870;9.578;2023-05-07T02:57:40;8.70;;;7.80;;
3543;SDS011;1786;52.870;9.578;2023-05-07T03:00:11;10.47;;;9.33;;
3543;SDS011;1786;52.870;9.578;2023-05-07T03:02:50;11.57;;;8.80;;
3543;SDS011;1786;52.870;9.578;2023-05-07T03:05:17;11.23;;;9.30;;
3543;SDS011;1786;52.870;9.578;2023-05-07T03:07:44;11.73;;;10.13;;
3543;SDS011;1786;52.870;9.578;2023-05-07T03:10:13;13.17;;;9.30;;
3543;SDS011;1786;52.870;9.578;2023-05-07T03:12:39;14.03;;;10.13;;
3543;SDS011;1786;52.870;9.578;2023-05-07T03:15:08;12.07;;;9.80;;
3543;SDS011;1786;52.870;9.578;2023-05-07T03:17:36;12.00;;;9.50;;
3543;SDS011;1786;52.870;9.578;2023-05-07T03:20:03;13.60;;;9.97;;
3543;SDS011;1786;52.870;9.578;2023-05-07T03:22:31;11.23;;;10.03;;
3543;SDS011;1786;52.870;9.578;2023-05-07T03:24:57;17.37;;;11.60;;
3543;SDS011;1786;52.870;9.578;2023-05-07T03:27:24;13.53;;;10.07;;
3543;SDS011;1786;52.870;9.578;2023-05-07T03:29:52;10.47;;;9.37;;
3543;SDS011;1786;52.870;9.578;2023-05-07T03:32:19;14.87;;;9.93;;
3543;SDS011;1786;52.870;9.578;2023-05-07T03:34:47;12.13;;;10.40;;
3543;SDS011;1786;52.870;9.578;2023-05-07T03:37:13;12.10;;;10.00;;
3543;SDS011;1786;52.870;9.578;2023-05-07T03:39:41;13.50;;;9.50;;
3543;SDS011;1786;52.870;9.578;2023-05-07T03:42:09;10.40;;;8.47;;
3543;SDS011;1786;52.870;9.578;2023-05-07T03:44:37;10.00;;;9.00;;
3543;SDS011;1786;52.870;9.578;2023-05-07T03:47:03;11.10;;;9.23;;
3543;SDS011;1786;52.870;9.578;2023-05-07T03:49:31;13.40;;;9.10;;
3543;SDS011;1786;52.870;9.578;2023-05-07T03:51:58;10.17;;;8.80;;
3543;SDS011;1786;52.870;9.578;2023-05-07T03:54:25;8.27;;;7.17;;
3543;SDS011;1786;52.870;9.578;2023-05-07T03:56:51;8.80;;;7.97;;
3543;SDS011;1786;52.870;9.578;2023-05-07T03:59:18;9.43;;;8.50;;
3543;SDS011;1786;52.870;9.578;2023-05-07T04:01:46;9.70;;;8.70;;
3543;SDS011;1786;52.870;9.578;2023-05-07T04:04:16;9.13;;;8.20;;
3543;SDS011;1786;52.870;9.578;2023-05-07T04:06:43;10.57;;;8.67;;
3543;SDS011;1786;52.870;9.578;2023-05-07T04:09:10;10.03;;;8.50;;
3543;SDS011;1786;52.870;9.578;2023-05-07T04:11:37;9.93;;;8.33;;
3543;SDS011;1786;52.870;9.578;2023-05-07T04:14:08;7.60;;;6.77;;
3543;SDS011;1786;52.870;9.578;2023-05-07T04:16:35;7.60;;;6.90;;
3543;SDS011;1786;52.870;9.578;2023-05-07T04:19:03;7.40;;;6.70;;
3543;SDS011;1786;52.870;9.578;2023-05-07T04:21:30;7.80;;;7.10;;
3543;SDS011;1786;52.870;9.578;2023-05-07T04:23:58;8.30;;;7.47;;
3543;SDS011;1786;52.870;9.578;2023-05-07T04:26:24;9.37;;;8.47;;
3543;SDS011;1786;52.870;9.578;2023-05-07T04:28:51;8.73;;;7.40;;
3543;SDS011;1786;52.870;9.578;2023-05-07T04:31:18;8.07;;;7.33;;
3543;SDS011;1786;52.870;9.578;2023-05-07T04:33:50;7.10;;;6.53;;
3543;SDS011;1786;52.870;9.578;2023-05-07T04:36:18;8.60;;;7.80;;
3543;SDS011;1786;52.870;9.578;2023-05-07T04:38:58;7.77;;;6.93;;
3543;SDS011;1786;52.870;9.578;2023-05-07T04:41:25;8.23;;;7.53;;
3543;SDS011;1786;52.870;9.578;2023-05-07T04:43:53;7.80;;;7.13;;
3543;SDS011;1786;52.870;9.578;2023-05-07T04:46:22;6.83;;;6.13;;
3543;SDS011;1786;52.870;9.578;2023-05-07T04:48:50;7.00;;;6.40;;
3543;SDS011;1786;52.870;9.578;2023-05-07T04:51:18;6.90;;;6.30;;
3543;SDS011;1786;52.870;9.578;2023-05-07T04:53:44;7.17;;;6.57;;
3543;SDS011;1786;52.870;9.578;2023-05-07T04:56:12;7.17;;;6.57;;
3543;SDS011;1786;52.870;9.578;2023-05-07T04:58:41;6.93;;;6.30;;
3543;SDS011;1786;52.870;9.578;2023-05-07T05:01:09;7.20;;;6.50;;
3543;SDS011;1786;52.870;9.578;2023-05-07T05:03:37;6.40;;;5.90;;
3543;SDS011;1786;52.870;9.578;2023-05-07T05:06:04;6.33;;;5.83;;
3543;SDS011;1786;52.870;9.578;2023-05-07T05:08:33;6.40;;;5.90;;
3543;SDS011;1786;52.870;9.578;2023-05-07T05:11:01;6.63;;;6.03;;
3543;SDS011;1786;52.870;9.578;2023-05-07T05:13:30;7.93;;;7.17;;
3543;SDS011;1786;52.870;9.578;2023-05-07T05:15:58;6.37;;;5.87;;
3543;SDS011;1786;52.870;9.578;2023-05-07T05:18:26;6.20;;;5.60;;
3543;SDS011;1786;52.870;9.578;2023-05-07T05:20:54;6.30;;;5.80;;
3543;SDS011;1786;52.870;9.578;2023-05-07T05:23:21;6.40;;;5.90;;
3543;SDS011;1786;52.870;9.578;2023-05-07T05:25:47;5.93;;;5.37;;
3543;SDS011;1786;52.870;9.578;2023-05-07T05:28:14;6.87;;;6.30;;
3543;SDS011;1786;52.870;9.578;2023-05-07T05:30:41;6.47;;;6.00;;
3543;SDS011;1786;52.870;9.578;2023-05-07T05:33:08;6.70;;;6.10;;
3543;SDS011;1786;52.870;9.578;2023-05-07T05:35:35;7.00;;;6.40;;
3543;SDS011;1786;52.870;9.578;2023-05-07T05:38:06;7.60;;;6.90;;
3543;SDS011;1786;52.870;9.578;2023-05-07T05:40:33;6.97;;;6.27;;
3543;SDS011;1786;52.870;9.578;2023-05-07T05:43:00;7.43;;;6.83;;
3543;SDS011;1786;52.870;9.578;2023-05-07T05:45:27;6.90;;;6.30;;
3543;SDS011;1786;52.870;9.578;2023-05-07T05:47:55;7.73;;;6.03;;
3543;SDS011;1786;52.870;9.578;2023-05-07T05:50:23;7.60;;;6.90;;
3543;SDS011;1786;52.870;9.578;2023-05-07T05:52:51;10.30;;;5.97;;
3543;SDS011;1786;52.870;9.578;2023-05-07T05:55:19;9.37;;;8.30;;
3543;SDS011;1786;52.870;9.578;2023-05-07T05:57:46;8.20;;;7.47;;
3543;SDS011;1786;52.870;9.578;2023-05-07T06:00:13;7.57;;;6.97;;
3543;SDS011;1786;52.870;9.578;2023-05-07T06:02:46;7.43;;;6.60;;
3543;SDS011;1786;52.870;9.578;2023-05-07T06:05:19;6.67;;;6.17;;
3543;SDS011;1786;52.870;9.578;2023-05-07T06:07:49;7.13;;;6.53;;
3543;SDS011;1786;52.870;9.578;2023-05-07T06:10:16;6.93;;;6.40;;
3543;SDS011;1786;52.870;9.578;2023-05-07T06:12:43;7.07;;;6.37;;
3543;SDS011;1786;52.870;9.578;2023-05-07T06:15:10;6.47;;;5.97;;
3543;SDS011;1786;52.870;9.578;2023-05-07T06:17:38;9.73;;;5.67;;
3543;SDS011;1786;52.870;9.578;2023-05-07T06:20:06;6.40;;;5.90;;
3543;SDS011;1786;52.870;9.578;2023-05-07T06:22:33;5.83;;;5.33;;
3543;SDS011;1786;52.870;9.578;2023-05-07T06:25:00;7.53;;;5.83;;
3543;SDS011;1786;52.870;9.578;2023-05-07T06:27:27;5.67;;;5.23;;
3543;SDS011;1786;52.870;9.578;2023-05-07T06:29:55;5.87;;;5.37;;
3543;SDS011;1786;52.870;9.578;2023-05-07T06:32:21;6.47;;;5.87;;
3543;SDS011;1786;52.870;9.578;2023-05-07T06:34:50;5.93;;;5.43;;
3543;SDS011;1786;52.870;9.578;2023-05-07T06:37:18;6.10;;;5.60;;
3543;SDS011;1786;52.870;9.578;2023-05-07T06:39:58;6.13;;;5.63;;
3543;SDS011;1786;52.870;9.578;2023-05-07T06:42:27;6.27;;;5.77;;
3543;SDS011;1786;52.870;9.578;2023-05-07T06:44:57;5.53;;;5.03;;
3543;SDS011;1786;52.870;9.578;2023-05-07T06:47:25;5.87;;;5.47;;
3543;SDS011;1786;52.870;9.578;2023-05-07T06:49:54;5.83;;;5.43;;
3543;SDS011;1786;52.870;9.578;2023-05-07T06:52:24;6.57;;;6.00;;
3543;SDS011;1786;52.870;9.578;2023-05-07T06:54:52;7.33;;;6.13;;
3543;SDS011;1786;52.870;9.578;2023-05-07T06:57:21;6.27;;;5.67;;
3543;SDS011;1786;52.870;9.578;2023-05-07T06:59:48;5.87;;;5.47;;
3543;SDS011;1786;52.870;9.578;2023-05-07T07:02:15;5.33;;;4.97;;
3543;SDS011;1786;52.870;9.578;2023-05-07T07:04:44;5.27;;;4.97;;
3543;SDS011;1786;52.870;9.578;2023-05-07T07:07:12;6.43;;;5.93;;
3543;SDS011;1786;52.870;9.578;2023-05-07T07:09:41;6.13;;;5.63;;
3543;SDS011;1786;52.870;9.578;2023-05-07T07:12:08;5.73;;;5.40;;
3543;SDS011;1786;52.870;9.578;2023-05-07T07:14:38;6.93;;;5.70;;
3543;SDS011;1786;52.870;9.578;2023-05-07T07:17:05;6.63;;;6.03;;
3543;SDS011;1786;52.870;9.578;2023-05-07T07:19:33;6.87;;;5.87;;
3543;SDS011;1786;52.870;9.578;2023-05-07T07:22:02;6.37;;;5.87;;
3543;SDS011;1786;52.870;9.578;2023-05-07T07:24:30;6.40;;;5.80;;
3543;SDS011;1786;52.870;9.578;2023-05-07T07:27:00;6.80;;;5.93;;
3543;SDS011;1786;52.870;9.578;2023-05-07T07:29:28;5.97;;;5.57;;
3543;SDS011;1786;52.870;9.578;2023-05-07T07:31:55;6.60;;;6.00;;
3543;SDS011;1786;52.870;9.578;2023-05-07T07:34:23;6.80;;;6.20;;
3543;SDS011;1786;52.870;9.578;2023-05-07T07:36:50;5.90;;;5.47;;
3543;SDS011;1786;52.870;9.578;2023-05-07T07:39:18;7.00;;;6.30;;
3543;SDS011;1786;52.870;9.578;2023-05-07T07:41:47;6.80;;;6.20;;
3543;SDS011;1786;52.870;9.578;2023-05-07T07:44:14;6.17;;;5.67;;
3543;SDS011;1786;52.870;9.578;2023-05-07T07:46:46;6.37;;;5.63;;
3543;SDS011;1786;52.870;9.578;2023-05-07T07:49:13;7.77;;;6.87;;
3543;SDS011;1786;52.870;9.578;2023-05-07T07:51:41;6.73;;;6.23;;
3543;SDS011;1786;52.870;9.578;2023-05-07T07:54:09;7.03;;;6.33;;
3543;SDS011;1786;52.870;9.578;2023-05-07T07:56:36;7.03;;;6.43;;
3543;SDS011;1786;52.870;9.578;2023-05-07T07:59:04;7.73;;;6.20;;
3543;SDS011;1786;52.870;9.578;2023-05-07T08:01:32;7.17;;;6.57;;
3543;SDS011;1786;52.870;9.578;2023-05-07T08:03:59;7.00;;;6.30;;
3543;SDS011;1786;52.870;9.578;2023-05-07T08:06:28;6.27;;;5.67;;
3543;SDS011;1786;52.870;9.578;2023-05-07T08:08:55;7.90;;;6.13;;
3543;SDS011;1786;52.870;9.578;2023-05-07T08:11:22;6.90;;;5.93;;
3543;SDS011;1786;52.870;9.578;2023-05-07T08:13:50;7.00;;;6.30;;
3543;SDS011;1786;52.870;9.578;2023-05-07T08:16:18;6.60;;;6.10;;
3543;SDS011;1786;52.870;9.578;2023-05-07T08:18:44;6.97;;;6.37;;
3543;SDS011;1786;52.870;9.578;2023-05-07T08:21:11;8.80;;;7.23;;
3543;SDS011;1786;52.870;9.578;2023-05-07T08:23:38;10.17;;;6.10;;
3543;SDS011;1786;52.870;9.578;2023-05-07T08:26:07;7.13;;;6.43;;
3543;SDS011;1786;52.870;9.578;2023-05-07T08:28:35;8.83;;;6.90;;
3543;SDS011;1786;52.870;9.578;2023-05-07T08:31:02;7.27;;;6.67;;
3543;SDS011;1786;52.870;9.578;2023-05-07T08:33:33;7.33;;;6.63;;
3543;SDS011;1786;52.870;9.578;2023-05-07T08:36:00;7.40;;;6.80;;
3543;SDS011;1786;52.870;9.578;2023-05-07T08:38:26;8.00;;;7.20;;
3543;SDS011;1786;52.870;9.578;2023-05-07T08:40:54;7.77;;;6.97;;
3543;SDS011;1786;52.870;9.578;2023-05-07T08:43:21;6.80;;;6.20;;
3543;SDS011;1786;52.870;9.578;2023-05-07T08:45:49;7.83;;;7.03;;
3543;SDS011;1786;52.870;9.578;2023-05-07T08:48:25;7.20;;;6.70;;
3543;SDS011;1786;52.870;9.578;2023-05-07T08:51:01;7.50;;;6.80;;
3543;SDS011;1786;52.870;9.578;2023-05-07T08:53:28;6.00;;;5.50;;
3543;SDS011;1786;52.870;9.578;2023-05-07T08:55:55;8.47;;;7.77;;
3543;SDS011;1786;52.870;9.578;2023-05-07T08:58:23;8.40;;;7.53;;
3543;SDS011;1786;52.870;9.578;2023-05-07T09:00:49;7.63;;;6.90;;
3543;SDS011;1786;52.870;9.578;2023-05-07T09:03:19;7.73;;;7.07;;
3543;SDS011;1786;52.870;9.578;2023-05-07T09:05:49;7.70;;;7.10;;
3543;SDS011;1786;52.870;9.578;2023-05-07T09:08:17;7.23;;;6.53;;
3543;SDS011;1786;52.870;9.578;2023-05-07T09:10:46;8.13;;;7.33;;
3543;SDS011;1786;52.870;9.578;2023-05-07T09:13:14;8.33;;;7.63;;
3543;SDS011;1786;52.870;9.578;2023-05-07T09:15:42;8.93;;;7.43;;
3543;SDS011;1786;52.870;9.578;2023-05-07T09:18:09;8.00;;;7.23;;
3543;SDS011;1786;52.870;9.578;2023-05-07T09:20:38;7.77;;;7.07;;
3543;SDS011;1786;52.870;9.578;2023-05-07T09:23:05;7.50;;;6.57;;
3543;SDS011;1786;52.870;9.578;2023-05-07T09:25:34;7.10;;;6.40;;
3543;SDS011;1786;52.870;9.578;2023-05-07T09:28:09;6.47;;;5.87;;
3543;SDS011;1786;52.870;9.578;2023-05-07T09:30:37;8.50;;;7.17;;
3543;SDS011;1786;52.870;9.578;2023-05-07T09:33:06;7.03;;;6.33;;
3543;SDS011;1786;52.870;9.578;2023-05-07T09:35:37;10.60;;;6.93;;
3543;SDS011;1786;52.870;9.578;2023-05-07T09:38:08;6.93;;;6.20;;
3543;SDS011;1786;52.870;9.578;2023-05-07T09:40:35;6.93;;;6.27;;
3543;SDS011;1786;52.870;9.578;2023-05-07T09:43:10;7.83;;;7.07;;
3543;SDS011;1786;52.870;9.578;2023-05-07T09:45:45;6.40;;;5.80;;
3543;SDS011;1786;52.870;9.578;2023-05-07T09:48:13;6.03;;;5.53;;
3543;SDS011;1786;52.870;9.578;2023-05-07T09:50:49;6.13;;;5.63;;
3543;SDS011;1786;52.870;9.578;2023-05-07T09:53:22;6.40;;;5.67;;
3543;SDS011;1786;52.870;9.578;2023-05-07T09:55:50;6.47;;;5.93;;
3543;SDS011;1786;52.870;9.578;2023-05-07T09:58:19;6.37;;;5.87;;
3543;SDS011;1786;52.870;9.578;2023-05-07T10:00:47;5.00;;;4.70;;
3543;SDS011;1786;52.870;9.578;2023-05-07T10:03:16;6.13;;;5.33;;
3543;SDS011;1786;52.870;9.578;2023-05-07T10:05:58;6.43;;;5.00;;
3543;SDS011;1786;52.870;9.578;2023-05-07T10:08:25;5.80;;;5.30;;
3543;SDS011;1786;52.870;9.578;2023-05-07T10:10:55;6.43;;;5.83;;
3543;SDS011;1786;52.870;9.578;2023-05-07T10:13:25;5.43;;;4.83;;
3543;SDS011;1786;52.870;9.578;2023-05-07T10:15:55;6.27;;;5.23;;
3543;SDS011;1786;52.870;9.578;2023-05-07T10:18:25;5.50;;;5.00;;
3543;SDS011;1786;52.870;9.578;2023-05-07T10:21:02;6.50;;;6.10;;
3543;SDS011;1786;52.870;9.578;2023-05-07T10:23:35;5.57;;;5.17;;
3543;SDS011;1786;52.870;9.578;2023-05-07T10:26:05;6.00;;;5.60;;
3543;SDS011;1786;52.870;9.578;2023-05-07T10:28:37;6.30;;;5.73;;
3543;SDS011;1786;52.870;9.578;2023-05-07T10:34:11;6.10;;;5.57;;
3543;SDS011;1786;52.870;9.578;2023-05-07T10:36:44;5.90;;;5.37;;
3543;SDS011;1786;52.870;9.578;2023-05-07T10:39:11;5.57;;;5.27;;
3543;SDS011;1786;52.870;9.578;2023-05-07T10:41:39;5.73;;;5.30;;
3543;SDS011;1786;52.870;9.578;2023-05-07T10:44:07;5.97;;;5.47;;
3543;SDS011;1786;52.870;9.578;2023-05-07T10:46:35;8.03;;;5.07;;
3543;SDS011;1786;52.870;9.578;2023-05-07T10:49:19;5.10;;;4.80;;
3543;SDS011;1786;52.870;9.578;2023-05-07T10:52:11;5.67;;;5.07;;
3543;SDS011;1786;52.870;9.578;2023-05-07T10:57:55;5.50;;;5.00;;
3543;SDS011;1786;52.870;9.578;2023-05-07T11:05:33;5.20;;;4.90;;
3543;SDS011;1786;52.870;9.578;2023-05-07T11:08:18;4.20;;;3.90;;
3543;SDS011;1786;52.870;9.578;2023-05-07T11:10:55;4.67;;;4.37;;
3543;SDS011;1786;52.870;9.578;2023-05-07T11:13:43;7.40;;;4.63;;
3543;SDS011;1786;52.870;9.578;2023-05-07T11:16:25;5.90;;;4.20;;
3543;SDS011;1786;52.870;9.578;2023-05-07T11:19:02;4.17;;;3.97;;
3543;SDS011;1786;52.870;9.578;2023-05-07T11:21:41;4.20;;;4.00;;
3543;SDS011;1786;52.870;9.578;2023-05-07T11:24:39;4.13;;;3.87;;
3543;SDS011;1786;52.870;9.578;2023-05-07T11:27:09;4.50;;;4.20;;
3543;SDS011;1786;52.870;9.578;2023-05-07T11:29:36;3.80;;;3.60;;
3543;SDS011;1786;52.870;9.578;2023-05-07T11:32:08;4.00;;;3.80;;
3543;SDS011;1786;52.870;9.578;2023-05-07T11:34:53;4.30;;;4.00;;
3543;SDS011;1786;52.870;9.578;2023-05-07T11:37:21;4.00;;;3.70;;
3543;SDS011;1786;52.870;9.578;2023-05-07T11:40:04;4.27;;;3.87;;
3543;SDS011;1786;52.870;9.578;2023-05-07T11:42:36;7.53;;;4.03;;
3543;SDS011;1786;52.870;9.578;2023-05-07T11:45:05;3.60;;;3.30;;
3543;SDS011;1786;52.870;9.578;2023-05-07T11:47:33;4.07;;;3.80;;
3543;SDS011;1786;52.870;9.578;2023-05-07T11:50:02;3.97;;;3.67;;
3543;SDS011;1786;52.870;9.578;2023-05-07T11:52:31;5.13;;;4.73;;
3543;SDS011;1786;52.870;9.578;2023-05-07T11:54:58;4.57;;;4.17;;
3543;SDS011;1786;52.870;9.578;2023-05-07T11:57:26;3.63;;;3.43;;
3543;SDS011;1786;52.870;9.578;2023-05-07T11:59:56;5.00;;;4.70;;
3543;SDS011;1786;52.870;9.578;2023-05-07T12:02:24;7.27;;;4.70;;
3543;SDS011;1786;52.870;9.578;2023-05-07T12:04:52;4.87;;;4.43;;
3543;SDS011;1786;52.870;9.578;2023-05-07T12:07:20;4.77;;;4.47;;
3543;SDS011;1786;52.870;9.578;2023-05-07T12:09:47;4.07;;;3.87;;
3543;SDS011;1786;52.870;9.578;2023-05-07T12:12:14;6.57;;;5.80;;
3543;SDS011;1786;52.870;9.578;2023-05-07T12:14:43;5.80;;;4.30;;
3543;SDS011;1786;52.870;9.578;2023-05-07T12:17:11;4.10;;;3.87;;
3543;SDS011;1786;52.870;9.578;2023-05-07T12:19:41;4.43;;;4.10;;
3543;SDS011;1786;52.870;9.578;2023-05-07T12:22:09;4.53;;;4.23;;
3543;SDS011;1786;52.870;9.578;2023-05-07T12:24:49;4.60;;;4.30;;
3543;SDS011;1786;52.870;9.578;2023-05-07T12:27:22;5.60;;;5.20;;
3543;SDS011;1786;52.870;9.578;2023-05-07T12:29:50;4.90;;;4.60;;
3543;SDS011;1786;52.870;9.578;2023-05-07T12:32:17;4.83;;;4.30;;
3543;SDS011;1786;52.870;9.578;2023-05-07T12:34:46;4.90;;;4.60;;
3543;SDS011;1786;52.870;9.578;2023-05-07T12:37:15;4.90;;;4.60;;
3543;SDS011;1786;52.870;9.578;2023-05-07T12:40:03;4.53;;;4.23;;
3543;SDS011;1786;52.870;9.578;2023-05-07T12:42:32;4.60;;;4.23;;
3543;SDS011;1786;52.870;9.578;2023-05-07T12:45:11;5.13;;;4.70;;
3543;SDS011;1786;52.870;9.578;2023-05-07T12:47:43;5.87;;;5.37;;
3543;SDS011;1786;52.870;9.578;2023-05-07T12:50:12;5.10;;;4.80;;
3543;SDS011;1786;52.870;9.578;2023-05-07T12:52:40;4.90;;;4.60;;
3543;SDS011;1786;52.870;9.578;2023-05-07T12:55:07;5.57;;;5.27;;
3543;SDS011;1786;52.870;9.578;2023-05-07T12:57:38;5.90;;;5.30;;
3543;SDS011;1786;52.870;9.578;2023-05-07T13:00:06;6.33;;;4.80;;
3543;SDS011;1786;52.870;9.578;2023-05-07T13:02:33;5.13;;;4.83;;
3543;SDS011;1786;52.870;9.578;2023-05-07T13:05:01;4.87;;;4.47;;
3543;SDS011;1786;52.870;9.578;2023-05-07T13:07:28;4.87;;;4.57;;
3543;SDS011;1786;52.870;9.578;2023-05-07T13:09:56;5.17;;;4.77;;
3543;SDS011;1786;52.870;9.578;2023-05-07T13:12:23;5.63;;;5.13;;
3543;SDS011;1786;52.870;9.578;2023-05-07T13:14:49;4.23;;;4.00;;
3543;SDS011;1786;52.870;9.578;2023-05-07T13:17:16;4.90;;;4.60;;
3543;SDS011;1786;52.870;9.578;2023-05-07T13:19:44;6.37;;;4.30;;
3543;SDS011;1786;52.870;9.578;2023-05-07T13:22:11;4.37;;;4.17;;
3543;SDS011;1786;52.870;9.578;2023-05-07T13:24:39;4.50;;;4.20;;
3543;SDS011;1786;52.870;9.578;2023-05-07T13:27:07;5.20;;;3.50;;
3543;SDS011;1786;52.870;9.578;2023-05-07T13:29:34;4.43;;;4.13;;
3543;SDS011;1786;52.870;9.578;2023-05-07T13:32:01;4.57;;;4.17;;
3543;SDS011;1786;52.870;9.578;2023-05-07T13:34:27;5.90;;;5.50;;
3543;SDS011;1786;52.870;9.578;2023-05-07T13:36:54;8.17;;;4.83;;
3543;SDS011;1786;52.870;9.578;2023-05-07T13:39:21;7.83;;;6.10;;
3543;SDS011;1786;52.870;9.578;2023-05-07T13:41:48;5.20;;;4.80;;
3543;SDS011;1786;52.870;9.578;2023-05-07T13:44:14;4.70;;;4.30;;
3543;SDS011;1786;52.870;9.578;2023-05-07T13:46:41;5.33;;;5.00;;
3543;SDS011;1786;52.870;9.578;2023-05-07T13:49:08;5.60;;;5.17;;
3543;SDS011;1786;52.870;9.578;2023-05-07T13:51:34;4.40;;;4.20;;
3543;SDS011;1786;52.870;9.578;2023-05-07T13:54:01;4.20;;;4.00;;
3543;SDS011;1786;52.870;9.578;2023-05-07T13:56:28;4.60;;;4.40;;
3543;SDS011;1786;52.870;9.578;2023-05-07T13:58:57;5.40;;;4.90;;
3543;SDS011;1786;52.870;9.578;2023-05-07T14:01:26;5.00;;;4.70;;
3543;SDS011;1786;52.870;9.578;2023-05-07T14:03:54;4.87;;;4.40;;
3543;SDS011;1786;52.870;9.578;2023-05-07T14:06:22;4.53;;;4.23;;
3543;SDS011;1786;52.870;9.578;2023-05-07T14:08:49;6.37;;;5.87;;
3543;SDS011;1786;52.870;9.578;2023-05-07T14:11:16;7.87;;;6.37;;
3543;SDS011;1786;52.870;9.578;2023-05-07T14:13:43;5.40;;;5.00;;
3543;SDS011;1786;52.870;9.578;2023-05-07T14:16:09;8.83;;;6.30;;
3543;SDS011;1786;52.870;9.578;2023-05-07T14:18:37;4.73;;;4.43;;
3543;SDS011;1786;52.870;9.578;2023-05-07T14:21:04;7.70;;;5.77;;
3543;SDS011;1786;52.870;9.578;2023-05-07T14:23:32;4.83;;;4.53;;
3543;SDS011;1786;52.870;9.578;2023-05-07T14:25:59;5.10;;;4.70;;
3543;SDS011;1786;52.870;9.578;2023-05-07T14:28:26;6.00;;;5.50;;
3543;SDS011;1786;52.870;9.578;2023-05-07T14:30:53;5.33;;;4.60;;
3543;SDS011;1786;52.870;9.578;2023-05-07T14:33:20;5.10;;;4.80;;
3543;SDS011;1786;52.870;9.578;2023-05-07T14:35:46;5.03;;;4.10;;
3543;SDS011;1786;52.870;9.578;2023-05-07T14:38:15;6.40;;;5.33;;
3543;SDS011;1786;52.870;9.578;2023-05-07T14:40:41;5.63;;;5.23;;
3543;SDS011;1786;52.870;9.578;2023-05-07T14:43:08;4.50;;;4.23;;
3543;SDS011;1786;52.870;9.578;2023-05-07T14:45:35;4.77;;;4.47;;
3543;SDS011;1786;52.870;9.578;2023-05-07T14:48:02;7.87;;;3.90;;
3543;SDS011;1786;52.870;9.578;2023-05-07T14:50:29;4.70;;;4.40;;
3543;SDS011;1786;52.870;9.578;2023-05-07T14:52:56;4.47;;;4.17;;
3543;SDS011;1786;52.870;9.578;2023-05-07T14:55:22;4.47;;;4.17;;
3543;SDS011;1786;52.870;9.578;2023-05-07T14:57:49;5.70;;;3.90;;
3543;SDS011;1786;52.870;9.578;2023-05-07T15:00:16;8.20;;;4.27;;
3543;SDS011;1786;52.870;9.578;2023-05-07T15:02:42;4.30;;;4.00;;
3543;SDS011;1786;52.870;9.578;2023-05-07T15:05:10;5.23;;;4.60;;
3543;SDS011;1786;52.870;9.578;2023-05-07T15:07:37;5.17;;;4.07;;
3543;SDS011;1786;52.870;9.578;2023-05-07T15:10:04;4.70;;;4.30;;
3543;SDS011;1786;52.870;9.578;2023-05-07T15:12:31;3.90;;;3.70;;
3543;SDS011;1786;52.870;9.578;2023-05-07T15:14:58;4.00;;;3.70;;
3543;SDS011;1786;52.870;9.578;2023-05-07T15:17:25;4.67;;;4.30;;
3543;SDS011;1786;52.870;9.578;2023-05-07T15:19:51;4.60;;;4.30;;
3543;SDS011;1786;52.870;9.578;2023-05-07T15:22:20;4.93;;;4.67;;
3543;SDS011;1786;52.870;9.578;2023-05-07T15:24:48;4.53;;;4.27;;
3543;SDS011;1786;52.870;9.578;2023-05-07T15:27:14;4.80;;;4.43;;
3543;SDS011;1786;52.870;9.578;2023-05-07T15:29:43;8.77;;;7.87;;
3543;SDS011;1786;52.870;9.578;2023-05-07T15:32:09;8.83;;;7.93;;
3543;SDS011;1786;52.870;9.578;2023-05-07T15:34:36;8.53;;;6.90;;